sensor_id;sensor_type;location;lat;lon;timestamp;pressure;altitude;pressure_sealevel;temperature;humidity
13478;BME280;12598;62.382;17.344;2023-05-15T00:00:39;101681.03;;;22.63;28.18
13478;BME280;12598;62.382;17.344;2023-05-15T00:01:42;101682.84;;;22.63;28.66
13478;BME280;12598;62.382;17.344;2023-05-15T00:02:44;101685.72;;;22.61;27.79
13478;BME280;12598;62.382;17.344;2023-05-15T00:03:46;101682.16;;;22.61;28.11
13478;BME280;12598;62.382;17.344;2023-05-15T00:04:48;101684.03;;;22.60;28.07
13478;BME280;12598;62.382;17.344;2023-05-15T00:05:51;101682.34;;;22.59;28.28
13478;BME280;12598;62.382;17.344;2023-05-15T00:06:53;101678.63;;;22.60;27.90
13478;BME280;12598;62.382;17.344;2023-05-15T00:07:55;101675.25;;;22.58;28.59
13478;BME280;12598;62.382;17.344;2023-05-15T00:08:56;101662.84;;;22.48;28.18
13478;BME280;12598;62.382;17.344;2023-05-15T00:09:59;101679.78;;;22.58;28.56
13478;BME280;12598;62.382;17.344;2023-05-15T00:11:01;101678.94;;;22.57;28.62
13478;BME280;12598;62.382;17.344;2023-05-15T00:12:03;101677.25;;;22.56;28.49
13478;BME280;12598;62.382;17.344;2023-05-15T00:13:05;101683.47;;;22.57;28.25
13478;BME280;12598;62.382;17.344;2023-05-15T00:14:06;101687.16;;;22.56;28.37
13478;BME280;12598;62.382;17.344;2023-05-15T00:15:09;101679.25;;;22.54;28.20
13478;BME280;12598;62.382;17.344;2023-05-15T00:16:11;101680.09;;;22.55;28.79
13478;BME280;12598;62.382;17.344;2023-05-15T00:17:13;101684.66;;;22.54;28.62
13478;BME280;12598;62.382;17.344;2023-05-15T00:18:15;101679.25;;;22.54;27.93
13478;BME280;12598;62.382;17.344;2023-05-15T00:19:16;101677.53;;;22.53;27.99
13478;BME280;12598;62.382;17.344;2023-05-15T00:20:18;101683.91;;;22.52;28.03
13478;BME280;12598;62.382;17.344;2023-05-15T00:21:21;101685.78;;;22.52;28.56
13478;BME280;12598;62.382;17.344;2023-05-15T00:22:22;101686.63;;;22.52;28.01
13478;BME280;12598;62.382;17.344;2023-05-15T00:23:24;101679.53;;;22.51;28.34
13478;BME280;12598;62.382;17.344;2023-05-15T00:24:26;101683.22;;;22.50;28.09
13478;BME280;12598;62.382;17.344;2023-05-15T00:25:28;101683.22;;;22.50;28.06
13478;BME280;12598;62.382;17.344;2023-05-15T00:26:30;101681.41;;;22.51;28.53
13478;BME280;12598;62.382;17.344;2023-05-15T00:27:32;101681.53;;;22.49;28.88
13478;BME280;12598;62.382;17.344;2023-05-15T00:28:37;101684.09;;;22.51;28.81
13478;BME280;12598;62.382;17.344;2023-05-15T00:29:39;101687.78;;;22.50;28.85
13478;BME280;12598;62.382;17.344;2023-05-15T00:30:40;101685.25;;;22.48;28.80
13478;BME280;12598;62.382;17.344;2023-05-15T00:31:42;101686.25;;;22.48;28.52
13478;BME280;12598;62.382;17.344;2023-05-15T00:32:44;101688.94;;;22.48;28.30
13478;BME280;12598;62.382;17.344;2023-05-15T00:33:46;101678.16;;;22.48;28.94
13478;BME280;12598;62.382;17.344;2023-05-15T00:34:48;101677.31;;;22.47;28.28
13478;BME280;12598;62.382;17.344;2023-05-15T00:35:50;101679.16;;;22.47;28.45
13478;BME280;12598;62.382;17.344;2023-05-15T00:36:52;101675.63;;;22.46;28.95
13478;BME280;12598;62.382;17.344;2023-05-15T00:37:54;101674.75;;;22.46;28.47
13478;BME280;12598;62.382;17.344;2023-05-15T00:38:55;101674.75;;;22.46;28.97
13478;BME280;12598;62.382;17.344;2023-05-15T00:39:58;101682.03;;;22.45;28.89
13478;BME280;12598;62.382;17.344;2023-05-15T00:41:04;101671.38;;;22.44;28.35
13478;BME280;12598;62.382;17.344;2023-05-15T00:42:07;101672.06;;;22.46;28.11
13478;BME280;12598;62.382;17.344;2023-05-15T00:43:10;101670.38;;;22.45;29.01
13478;BME280;12598;62.382;17.344;2023-05-15T00:44:14;101671.38;;;22.44;28.69
13478;BME280;12598;62.382;17.344;2023-05-15T00:45:18;101676.63;;;22.45;28.23
13478;BME280;12598;62.382;17.344;2023-05-15T00:46:23;101660.91;;;22.41;28.73
13478;BME280;12598;62.382;17.344;2023-05-15T00:47:26;101677.63;;;22.44;28.67
13478;BME280;12598;62.382;17.344;2023-05-15T00:48:30;101663.59;;;22.41;28.58
13478;BME280;12598;62.382;17.344;2023-05-15T00:49:33;101670.84;;;22.40;28.64
13478;BME280;12598;62.382;17.344;2023-05-15T00:50:38;101672.38;;;22.43;28.66
13478;BME280;12598;62.382;17.344;2023-05-15T00:51:42;101673.25;;;22.43;28.83
13478;BME280;12598;62.382;17.344;2023-05-15T00:52:44;101671.56;;;22.42;28.68
13478;BME280;12598;62.382;17.344;2023-05-15T00:53:46;101673.38;;;22.42;28.82
13478;BME280;12598;62.382;17.344;2023-05-15T00:54:48;101673.38;;;22.42;28.94
13478;BME280;12598;62.382;17.344;2023-05-15T00:55:50;101670.16;;;22.38;28.66
13478;BME280;12598;62.382;17.344;2023-05-15T00:56:55;101670.16;;;22.38;28.39
13478;BME280;12598;62.382;17.344;2023-05-15T00:57:59;101666.28;;;22.41;28.97
13478;BME280;12598;62.382;17.344;2023-05-15T00:59:03;101660.22;;;22.39;29.05
13478;BME280;12598;62.382;17.344;2023-05-15T01:00:06;101667.31;;;22.40;28.22
13478;BME280;12598;62.382;17.344;2023-05-15T01:01:13;101664.59;;;22.40;28.79
13478;BME280;12598;62.382;17.344;2023-05-15T01:02:15;101659.22;;;22.40;29.04
13478;BME280;12598;62.382;17.344;2023-05-15T01:03:19;101664.59;;;22.40;28.57
13478;BME280;12598;62.382;17.344;2023-05-15T01:04:21;101662.91;;;22.39;28.86
13478;BME280;12598;62.382;17.344;2023-05-15T01:05:23;101660.22;;;22.39;29.06
13478;BME280;12598;62.382;17.344;2023-05-15T01:06:25;101662.91;;;22.39;28.43
13478;BME280;12598;62.382;17.344;2023-05-15T01:07:31;101629.00;;;22.19;28.90
13478;BME280;12598;62.382;17.344;2023-05-15T01:08:43;101662.91;;;22.39;29.02
13478;BME280;12598;62.382;17.344;2023-05-15T01:09:48;101660.38;;;22.37;28.51
13478;BME280;12598;62.382;17.344;2023-05-15T01:10:51;101669.16;;;22.39;28.44
13478;BME280;12598;62.382;17.344;2023-05-15T01:11:54;101656.81;;;22.37;28.78
13478;BME280;12598;62.382;17.344;2023-05-15T01:13:00;101651.44;;;22.37;28.39
13478;BME280;12598;62.382;17.344;2023-05-15T01:14:04;101656.81;;;22.37;28.44
13478;BME280;12598;62.382;17.344;2023-05-15T01:15:07;101659.53;;;22.37;28.95
13478;BME280;12598;62.382;17.344;2023-05-15T01:16:09;101652.41;;;22.36;28.82
13478;BME280;12598;62.382;17.344;2023-05-15T01:17:11;101649.72;;;22.36;28.43
13478;BME280;12598;62.382;17.344;2023-05-15T01:18:13;101645.63;;;22.32;28.78
13478;BME280;12598;62.382;17.344;2023-05-15T01:19:16;101648.19;;;22.33;28.83
13478;BME280;12598;62.382;17.344;2023-05-15T01:20:19;101643.78;;;22.32;28.86
13478;BME280;12598;62.382;17.344;2023-05-15T01:23:37;101647.13;;;22.44;28.71
13478;BME280;12598;62.382;17.344;2023-05-15T01:28:18;101639.66;;;22.38;28.73
13478;BME280;12598;62.382;17.344;2023-05-15T01:30:51;101642.03;;;22.41;28.61
13478;BME280;12598;62.382;17.344;2023-05-15T01:32:19;101635.50;;;22.43;28.10
13478;BME280;12598;62.382;17.344;2023-05-15T01:33:31;101633.97;;;22.41;28.79
13478;BME280;12598;62.382;17.344;2023-05-15T01:34:43;101632.56;;;22.37;28.39
13478;BME280;12598;62.382;17.344;2023-05-15T01:35:58;101636.97;;;22.38;28.90
13478;BME280;12598;62.382;17.344;2023-05-15T01:37:02;101632.16;;;22.32;28.48
13478;BME280;12598;62.382;17.344;2023-05-15T01:39:34;101633.16;;;22.31;28.72
13478;BME280;12598;62.382;17.344;2023-05-15T01:40:37;101649.88;;;22.34;28.67
13478;BME280;12598;62.382;17.344;2023-05-15T01:41:53;101637.56;;;22.32;28.30
13478;BME280;12598;62.382;17.344;2023-05-15T01:43:02;101643.94;;;22.31;28.45
13478;BME280;12598;62.382;17.344;2023-05-15T01:44:10;101639.88;;;22.27;28.61
13478;BME280;12598;62.382;17.344;2023-05-15T01:45:16;101636.84;;;22.30;29.08
13478;BME280;12598;62.382;17.344;2023-05-15T01:46:21;101631.91;;;22.25;28.88
13478;BME280;12598;62.382;17.344;2023-05-15T01:47:30;101631.41;;;22.22;28.78
13478;BME280;12598;62.382;17.344;2023-05-15T01:48:35;101642.56;;;22.27;28.30
13478;BME280;12598;62.382;17.344;2023-05-15T01:49:39;101638.31;;;22.24;29.09
13478;BME280;12598;62.382;17.344;2023-05-15T01:50:44;101607.97;;;22.05;28.92
13478;BME280;12598;62.382;17.344;2023-05-15T01:51:49;101625.84;;;22.23;29.01
13478;BME280;12598;62.382;17.344;2023-05-15T01:52:55;101619.38;;;22.16;28.81
13478;BME280;12598;62.382;17.344;2023-05-15T01:54:00;101625.84;;;22.23;28.41
13478;BME280;12598;62.382;17.344;2023-05-15T01:55:04;101622.44;;;22.21;29.13
13478;BME280;12598;62.382;17.344;2023-05-15T01:56:12;101617.84;;;22.14;29.22
13478;BME280;12598;62.382;17.344;2023-05-15T01:57:15;101633.22;;;22.21;28.68
13478;BME280;12598;62.382;17.344;2023-05-15T01:58:18;101627.00;;;22.21;28.46
13478;BME280;12598;62.382;17.344;2023-05-15T01:59:22;101629.69;;;22.21;28.82
13478;BME280;12598;62.382;17.344;2023-05-15T02:00:25;101629.84;;;22.19;28.96
13478;BME280;12598;62.382;17.344;2023-05-15T02:01:27;101629.00;;;22.19;28.71
13478;BME280;12598;62.382;17.344;2023-05-15T02:02:31;101626.31;;;22.19;28.60
13478;BME280;12598;62.382;17.344;2023-05-15T02:03:34;101627.31;;;22.18;28.81
13478;BME280;12598;62.382;17.344;2023-05-15T02:04:37;101620.53;;;22.14;28.88
13478;BME280;12598;62.382;17.344;2023-05-15T02:05:40;101607.66;;;22.08;28.88
13478;BME280;12598;62.382;17.344;2023-05-15T02:06:43;101626.44;;;22.17;29.16
13478;BME280;12598;62.382;17.344;2023-05-15T02:07:45;101624.94;;;22.15;28.94
13478;BME280;12598;62.382;17.344;2023-05-15T02:08:49;101623.94;;;22.16;28.54
13478;BME280;12598;62.382;17.344;2023-05-15T02:09:54;101615.16;;;22.14;28.72
13478;BME280;12598;62.382;17.344;2023-05-15T02:10:58;101615.84;;;22.16;29.19
13478;BME280;12598;62.382;17.344;2023-05-15T02:12:04;101622.25;;;22.15;28.70
13478;BME280;12598;62.382;17.344;2023-05-15T02:13:08;101623.75;;;22.17;28.71
13478;BME280;12598;62.382;17.344;2023-05-15T02:14:11;101620.69;;;22.12;28.71
13478;BME280;12598;62.382;17.344;2023-05-15T02:15:14;101620.53;;;22.14;29.14
13478;BME280;12598;62.382;17.344;2023-05-15T02:16:20;101619.38;;;22.16;29.02
13478;BME280;12598;62.382;17.344;2023-05-15T02:17:22;101624.94;;;22.15;28.93
13478;BME280;12598;62.382;17.344;2023-05-15T02:18:24;101629.47;;;22.14;28.76
13478;BME280;12598;62.382;17.344;2023-05-15T02:19:26;101620.53;;;22.14;28.99
13478;BME280;12598;62.382;17.344;2023-05-15T02:20:28;101625.06;;;22.13;28.81
13478;BME280;12598;62.382;17.344;2023-05-15T02:21:30;101626.94;;;22.13;28.93
13478;BME280;12598;62.382;17.344;2023-05-15T02:22:32;101625.94;;;22.14;28.49
13478;BME280;12598;62.382;17.344;2023-05-15T02:23:34;101627.94;;;22.12;28.98
13478;BME280;12598;62.382;17.344;2023-05-15T02:24:35;101619.44;;;22.07;29.02
13478;BME280;12598;62.382;17.344;2023-05-15T02:26:56;101629.75;;;22.11;28.72
13478;BME280;12598;62.382;17.344;2023-05-15T02:28:03;101629.31;;;22.16;28.48
13478;BME280;12598;62.382;17.344;2023-05-15T02:30:37;101628.31;;;22.17;29.03
13478;BME280;12598;62.382;17.344;2023-05-15T02:33:13;101622.31;;;22.23;28.78
13478;BME280;12598;62.382;17.344;2023-05-15T02:34:36;101618.75;;;22.22;28.57
13478;BME280;12598;62.382;17.344;2023-05-15T02:36:04;101632.59;;;22.27;28.58
13478;BME280;12598;62.382;17.344;2023-05-15T02:37:15;101622.31;;;22.23;28.82
13478;BME280;12598;62.382;17.344;2023-05-15T02:38:35;101623.31;;;22.22;29.06
13478;BME280;12598;62.382;17.344;2023-05-15T02:39:41;101624.31;;;22.21;28.40
13478;BME280;12598;62.382;17.344;2023-05-15T02:40:46;101627.31;;;22.18;28.83
13478;BME280;12598;62.382;17.344;2023-05-15T02:41:49;101627.44;;;22.16;28.60
13478;BME280;12598;62.382;17.344;2023-05-15T02:42:53;101615.16;;;22.14;29.12
13478;BME280;12598;62.382;17.344;2023-05-15T02:43:55;101617.16;;;22.12;28.47
13478;BME280;12598;62.382;17.344;2023-05-15T02:44:57;101619.00;;;22.11;28.40
13478;BME280;12598;62.382;17.344;2023-05-15T02:46:04;101611.03;;;22.10;28.40
13478;BME280;12598;62.382;17.344;2023-05-15T02:47:08;101609.22;;;22.10;29.18
13478;BME280;12598;62.382;17.344;2023-05-15T02:48:11;101620.00;;;22.10;28.63
13478;BME280;12598;62.382;17.344;2023-05-15T02:49:13;101611.91;;;22.10;28.56
13478;BME280;12598;62.382;17.344;2023-05-15T02:50:16;101607.53;;;22.09;28.33
13478;BME280;12598;62.382;17.344;2023-05-15T02:51:19;101614.75;;;22.09;28.69
13478;BME280;12598;62.382;17.344;2023-05-15T02:52:23;101606.66;;;22.09;28.56
13478;BME280;12598;62.382;17.344;2023-05-15T02:53:25;101614.59;;;22.10;28.62
13478;BME280;12598;62.382;17.344;2023-05-15T02:54:27;101598.56;;;22.09;29.00
13478;BME280;12598;62.382;17.344;2023-05-15T02:55:29;101606.66;;;22.09;29.19
13478;BME280;12598;62.382;17.344;2023-05-15T02:56:31;101604.97;;;22.08;28.63
13478;BME280;12598;62.382;17.344;2023-05-15T02:57:33;101610.34;;;22.08;28.57
13478;BME280;12598;62.382;17.344;2023-05-15T02:58:35;101603.13;;;22.08;29.08
13478;BME280;12598;62.382;17.344;2023-05-15T02:59:38;101606.66;;;22.09;28.49
13478;BME280;12598;62.382;17.344;2023-05-15T03:00:40;101611.22;;;22.08;28.68
13478;BME280;12598;62.382;17.344;2023-05-15T03:01:42;101610.34;;;22.08;28.81
13478;BME280;12598;62.382;17.344;2023-05-15T03:02:44;101612.03;;;22.09;29.18
13478;BME280;12598;62.382;17.344;2023-05-15T03:03:46;101609.53;;;22.07;28.54
13478;BME280;12598;62.382;17.344;2023-05-15T03:04:48;101602.44;;;22.06;29.17
13478;BME280;12598;62.382;17.344;2023-05-15T03:05:50;101603.28;;;22.07;28.50
13478;BME280;12598;62.382;17.344;2023-05-15T03:06:52;101611.34;;;22.07;29.10
13478;BME280;12598;62.382;17.344;2023-05-15T03:07:54;101609.53;;;22.07;29.33
13478;BME280;12598;62.382;17.344;2023-05-15T03:08:56;101604.13;;;22.07;28.93
13478;BME280;12598;62.382;17.344;2023-05-15T03:09:57;101602.44;;;22.06;29.25
13478;BME280;12598;62.382;17.344;2023-05-15T03:10:59;101603.28;;;22.07;28.79
13478;BME280;12598;62.382;17.344;2023-05-15T03:12:01;101597.50;;;22.02;29.02
13478;BME280;12598;62.382;17.344;2023-05-15T03:13:03;101602.44;;;22.06;28.59
13478;BME280;12598;62.382;17.344;2023-05-15T03:14:05;101590.81;;;22.06;28.81
13478;BME280;12598;62.382;17.344;2023-05-15T03:15:07;101597.19;;;22.05;28.72
13478;BME280;12598;62.382;17.344;2023-05-15T03:16:09;101595.38;;;22.05;29.04
13478;BME280;12598;62.382;17.344;2023-05-15T03:17:11;101593.66;;;22.04;29.38
13478;BME280;12598;62.382;17.344;2023-05-15T03:18:13;101589.13;;;22.05;29.20
13478;BME280;12598;62.382;17.344;2023-05-15T03:19:19;101585.41;;;22.06;28.69
13478;BME280;12598;62.382;17.344;2023-05-15T03:20:20;101581.91;;;22.05;29.09
13478;BME280;12598;62.382;17.344;2023-05-15T03:21:22;101584.22;;;22.00;29.09
13478;BME280;12598;62.382;17.344;2023-05-15T03:22:24;101582.91;;;22.04;28.72
13478;BME280;12598;62.382;17.344;2023-05-15T03:23:26;101582.91;;;22.04;29.46
13478;BME280;12598;62.382;17.344;2023-05-15T03:24:28;101589.13;;;22.05;29.14
13478;BME280;12598;62.382;17.344;2023-05-15T03:25:30;101581.22;;;22.03;28.84
13478;BME280;12598;62.382;17.344;2023-05-15T03:26:32;101588.41;;;22.03;29.28
13478;BME280;12598;62.382;17.344;2023-05-15T03:27:33;101588.41;;;22.03;29.05
13478;BME280;12598;62.382;17.344;2023-05-15T03:28:35;101584.03;;;22.02;29.30
13478;BME280;12598;62.382;17.344;2023-05-15T03:29:37;101584.03;;;22.02;28.92
13478;BME280;12598;62.382;17.344;2023-05-15T03:30:43;101581.34;;;22.02;28.90
13478;BME280;12598;62.382;17.344;2023-05-15T03:31:44;101576.66;;;22.04;28.69
13478;BME280;12598;62.382;17.344;2023-05-15T03:32:46;101580.34;;;22.03;29.22
13478;BME280;12598;62.382;17.344;2023-05-15T03:33:48;101572.25;;;22.03;29.23
13478;BME280;12598;62.382;17.344;2023-05-15T03:34:51;101573.25;;;22.02;29.34
13478;BME280;12598;62.382;17.344;2023-05-15T03:35:53;101574.13;;;22.02;28.65
13478;BME280;12598;62.382;17.344;2023-05-15T03:36:55;101570.56;;;22.02;28.77
13478;BME280;12598;62.382;17.344;2023-05-15T03:37:57;101575.97;;;22.02;29.48
13478;BME280;12598;62.382;17.344;2023-05-15T03:38:58;101573.25;;;22.02;29.14
13478;BME280;12598;62.382;17.344;2023-05-15T03:40:00;101574.25;;;22.01;29.38
13478;BME280;12598;62.382;17.344;2023-05-15T03:41:02;101564.50;;;22.00;28.75
13478;BME280;12598;62.382;17.344;2023-05-15T03:42:06;101571.56;;;22.01;28.78
13478;BME280;12598;62.382;17.344;2023-05-15T03:43:08;101578.66;;;22.02;29.09
13478;BME280;12598;62.382;17.344;2023-05-15T03:44:09;101566.81;;;21.95;29.22
13478;BME280;12598;62.382;17.344;2023-05-15T03:45:13;101577.81;;;22.01;29.19
13478;BME280;12598;62.382;17.344;2023-05-15T03:46:15;101574.25;;;22.01;29.49
13478;BME280;12598;62.382;17.344;2023-05-15T03:47:17;101575.97;;;22.02;29.36
13478;BME280;12598;62.382;17.344;2023-05-15T03:48:19;101575.25;;;22.00;28.84
13478;BME280;12598;62.382;17.344;2023-05-15T03:49:21;101581.50;;;22.00;29.38
13478;BME280;12598;62.382;17.344;2023-05-15T03:50:22;101576.25;;;21.99;28.89
13478;BME280;12598;62.382;17.344;2023-05-15T03:51:24;101569.88;;;22.00;28.86
13478;BME280;12598;62.382;17.344;2023-05-15T03:52:27;101562.81;;;21.99;29.49
13478;BME280;12598;62.382;17.344;2023-05-15T03:53:29;101568.03;;;22.00;28.99
13478;BME280;12598;62.382;17.344;2023-05-15T03:54:31;101564.50;;;22.00;28.83
13478;BME280;12598;62.382;17.344;2023-05-15T03:55:32;101564.50;;;22.00;28.84
13478;BME280;12598;62.382;17.344;2023-05-15T03:56:34;101569.88;;;22.00;29.32
13478;BME280;12598;62.382;17.344;2023-05-15T03:57:36;101575.25;;;22.00;29.52
13478;BME280;12598;62.382;17.344;2023-05-15T03:58:38;101573.56;;;21.99;29.01
13478;BME280;12598;62.382;17.344;2023-05-15T03:59:40;101572.56;;;22.00;29.52
13478;BME280;12598;62.382;17.344;2023-05-15T04:00:42;101573.56;;;21.99;29.44
13478;BME280;12598;62.382;17.344;2023-05-15T04:01:44;101567.19;;;22.00;28.86
13478;BME280;12598;62.382;17.344;2023-05-15T04:03:04;101559.47;;;22.05;28.83
13478;BME280;12598;62.382;17.344;2023-05-15T04:04:06;101564.19;;;22.03;29.24
13478;BME280;12598;62.382;17.344;2023-05-15T04:05:08;101567.03;;;22.01;29.40
13478;BME280;12598;62.382;17.344;2023-05-15T04:06:10;101560.81;;;22.01;29.20
13478;BME280;12598;62.382;17.344;2023-05-15T04:07:12;101562.66;;;22.00;29.47
13478;BME280;12598;62.382;17.344;2023-05-15T04:08:14;101564.50;;;22.00;29.43
13478;BME280;12598;62.382;17.344;2023-05-15T04:09:16;101559.97;;;22.00;29.12
13478;BME280;12598;62.382;17.344;2023-05-15T04:10:18;101566.50;;;21.98;29.08
13478;BME280;12598;62.382;17.344;2023-05-15T04:11:20;101568.88;;;22.01;29.04
13478;BME280;12598;62.382;17.344;2023-05-15T04:12:23;101567.03;;;22.01;29.58
13478;BME280;12598;62.382;17.344;2023-05-15T04:13:28;101569.56;;;22.03;29.09
13478;BME280;12598;62.382;17.344;2023-05-15T04:14:30;101565.03;;;22.03;29.23
13478;BME280;12598;62.382;17.344;2023-05-15T04:15:32;101567.88;;;22.02;29.42
13478;BME280;12598;62.382;17.344;2023-05-15T04:16:34;101569.44;;;22.04;29.23
13478;BME280;12598;62.382;17.344;2023-05-15T04:17:36;101565.88;;;22.04;29.63
13478;BME280;12598;62.382;17.344;2023-05-15T04:18:38;101569.44;;;22.04;29.83
13478;BME280;12598;62.382;17.344;2023-05-15T04:19:39;101572.94;;;22.05;29.27
13478;BME280;12598;62.382;17.344;2023-05-15T04:20:43;101555.72;;;21.98;29.74
13478;BME280;12598;62.382;17.344;2023-05-15T04:21:45;101569.25;;;22.06;29.77
13478;BME280;12598;62.382;17.344;2023-05-15T04:22:47;101572.81;;;22.06;29.84
13478;BME280;12598;62.382;17.344;2023-05-15T04:23:49;101568.94;;;22.09;29.39
13478;BME280;12598;62.382;17.344;2023-05-15T04:24:51;101568.94;;;22.09;29.63
13478;BME280;12598;62.382;17.344;2023-05-15T04:25:53;101566.25;;;22.09;29.63
13478;BME280;12598;62.382;17.344;2023-05-15T04:26:55;101565.25;;;22.10;29.37
13478;BME280;12598;62.382;17.344;2023-05-15T04:27:57;101560.19;;;22.07;29.67
13478;BME280;12598;62.382;17.344;2023-05-15T04:28:59;101564.41;;;22.09;30.15
13478;BME280;12598;62.382;17.344;2023-05-15T04:30:06;101565.97;;;22.12;30.08
13478;BME280;12598;62.382;17.344;2023-05-15T04:31:09;101565.81;;;22.13;29.80
13478;BME280;12598;62.382;17.344;2023-05-15T04:32:11;101566.66;;;22.14;29.28
13478;BME280;12598;62.382;17.344;2023-05-15T04:33:13;101563.97;;;22.14;29.74
13478;BME280;12598;62.382;17.344;2023-05-15T04:34:15;101561.28;;;22.14;29.91
13478;BME280;12598;62.382;17.344;2023-05-15T04:35:17;101562.28;;;22.13;29.70
13478;BME280;12598;62.382;17.344;2023-05-15T04:36:19;101569.19;;;22.15;29.41
13478;BME280;12598;62.382;17.344;2023-05-15T04:37:21;101564.66;;;22.16;29.37
13478;BME280;12598;62.382;17.344;2023-05-15T04:38:23;101553.88;;;22.16;29.19
13478;BME280;12598;62.382;17.344;2023-05-15T04:39:25;101558.28;;;22.17;29.49
13478;BME280;12598;62.382;17.344;2023-05-15T04:40:27;101560.09;;;22.16;29.74
13478;BME280;12598;62.382;17.344;2023-05-15T04:41:29;101559.09;;;22.17;29.85
13478;BME280;12598;62.382;17.344;2023-05-15T04:42:30;101556.41;;;22.17;29.14
13478;BME280;12598;62.382;17.344;2023-05-15T04:43:32;101558.09;;;22.18;29.04
13478;BME280;12598;62.382;17.344;2023-05-15T04:44:34;101564.50;;;22.17;29.07
13478;BME280;12598;62.382;17.344;2023-05-15T04:45:36;101560.97;;;22.17;29.85
13478;BME280;12598;62.382;17.344;2023-05-15T04:46:38;101561.66;;;22.19;29.00
13478;BME280;12598;62.382;17.344;2023-05-15T04:47:40;101558.97;;;22.19;29.79
13478;BME280;12598;62.382;17.344;2023-05-15T04:48:42;101557.28;;;22.18;29.14
13478;BME280;12598;62.382;17.344;2023-05-15T04:49:44;101548.19;;;22.19;29.73
13478;BME280;12598;62.382;17.344;2023-05-15T04:50:48;101552.72;;;22.18;29.42
13478;BME280;12598;62.382;17.344;2023-05-15T04:51:50;101552.56;;;22.20;29.16
13478;BME280;12598;62.382;17.344;2023-05-15T04:52:51;101548.19;;;22.19;29.23
13478;BME280;12598;62.382;17.344;2023-05-15T04:53:53;101545.63;;;22.17;29.36
13478;BME280;12598;62.382;17.344;2023-05-15T04:54:55;101542.09;;;22.17;29.45
13478;BME280;12598;62.382;17.344;2023-05-15T04:55:57;101552.72;;;22.18;29.03
13478;BME280;12598;62.382;17.344;2023-05-15T04:56:59;101549.19;;;22.18;29.04
13478;BME280;12598;62.382;17.344;2023-05-15T04:58:01;101553.72;;;22.17;29.49
13478;BME280;12598;62.382;17.344;2023-05-15T04:59:03;101547.50;;;22.17;29.73
13478;BME280;12598;62.382;17.344;2023-05-15T05:00:06;101553.56;;;22.19;29.24
13478;BME280;12598;62.382;17.344;2023-05-15T05:01:12;101555.28;;;22.20;29.89
13478;BME280;12598;62.382;17.344;2023-05-15T05:02:14;101549.19;;;22.18;29.19
13478;BME280;12598;62.382;17.344;2023-05-15T05:03:16;101547.31;;;22.18;29.82
13478;BME280;12598;62.382;17.344;2023-05-15T05:04:18;101555.41;;;22.18;29.41
13478;BME280;12598;62.382;17.344;2023-05-15T05:05:20;101544.13;;;22.15;29.53
13478;BME280;12598;62.382;17.344;2023-05-15T05:06:22;101547.50;;;22.17;29.24
13478;BME280;12598;62.382;17.344;2023-05-15T05:07:24;101553.56;;;22.19;29.56
13478;BME280;12598;62.382;17.344;2023-05-15T05:08:26;101548.19;;;22.19;29.38
13478;BME280;12598;62.382;17.344;2023-05-15T05:09:28;101549.88;;;22.20;29.94
13478;BME280;12598;62.382;17.344;2023-05-15T05:10:30;101548.19;;;22.19;29.29
13478;BME280;12598;62.382;17.344;2023-05-15T05:11:31;101538.09;;;22.21;29.66
13478;BME280;12598;62.382;17.344;2023-05-15T05:12:33;101550.41;;;22.23;29.13
13478;BME280;12598;62.382;17.344;2023-05-15T05:13:35;101542.19;;;22.25;29.92
13478;BME280;12598;62.382;17.344;2023-05-15T05:14:37;101541.16;;;22.26;29.08
13478;BME280;12598;62.382;17.344;2023-05-15T05:15:41;101537.47;;;22.27;29.51
13478;BME280;12598;62.382;17.344;2023-05-15T05:16:44;101549.31;;;22.34;29.22
13478;BME280;12598;62.382;17.344;2023-05-15T05:17:46;101539.22;;;22.36;29.62
13478;BME280;12598;62.382;17.344;2023-05-15T05:18:48;101542.63;;;22.38;29.92
13478;BME280;12598;62.382;17.344;2023-05-15T05:19:50;101531.53;;;22.41;28.97
13478;BME280;12598;62.382;17.344;2023-05-15T05:20:58;101524.47;;;22.40;29.17
13478;BME280;12598;62.382;17.344;2023-05-15T05:22:02;101535.97;;;22.49;29.41
13478;BME280;12598;62.382;17.344;2023-05-15T05:23:05;101535.66;;;22.52;28.90
13478;BME280;12598;62.382;17.344;2023-05-15T05:24:07;101530.13;;;22.54;28.88
13478;BME280;12598;62.382;17.344;2023-05-15T05:25:09;101532.50;;;22.57;29.30
13478;BME280;12598;62.382;17.344;2023-05-15T05:26:11;101533.06;;;22.60;29.38
13478;BME280;12598;62.382;17.344;2023-05-15T05:27:13;101517.38;;;22.64;29.42
13478;BME280;12598;62.382;17.344;2023-05-15T05:28:15;101520.63;;;22.67;28.85
13478;BME280;12598;62.382;17.344;2023-05-15T05:29:17;101517.59;;;22.70;28.64
13478;BME280;12598;62.382;17.344;2023-05-15T05:30:19;101518.97;;;22.74;28.69
13478;BME280;12598;62.382;17.344;2023-05-15T05:31:21;101523.03;;;22.78;28.97
13478;BME280;12598;62.382;17.344;2023-05-15T05:32:23;101520.03;;;22.81;28.51
13478;BME280;12598;62.382;17.344;2023-05-15T05:33:25;101515.31;;;22.83;28.74
13478;BME280;12598;62.382;17.344;2023-05-15T05:34:27;101517.69;;;22.86;29.16
13478;BME280;12598;62.382;17.344;2023-05-15T05:35:29;101520.94;;;22.90;28.92
13478;BME280;12598;62.382;17.344;2023-05-15T05:36:31;101521.44;;;22.93;28.51
13478;BME280;12598;62.382;17.344;2023-05-15T05:37:33;101513.03;;;22.96;28.92
13478;BME280;12598;62.382;17.344;2023-05-15T05:38:35;101512.72;;;22.99;28.35
13478;BME280;12598;62.382;17.344;2023-05-15T05:39:37;101508.69;;;23.03;28.11